sensor_id;sensor_type;location;lat;lon;timestamp;P1;durP1;ratioP1;P2;durP2;ratioP2
55575;SDS011;41437;45.478;9.116;2023-03-01T00:02:21;47.95;;;27.58;;
55575;SDS011;41437;45.478;9.116;2023-03-01T00:05:22;44.35;;;27.27;;
55575;SDS011;41437;45.478;9.116;2023-03-01T00:08:24;43.40;;;26.80;;
55575;SDS011;41437;45.478;9.116;2023-03-01T00:11:26;44.30;;;26.80;;
55575;SDS011;41437;45.478;9.116;2023-03-01T00:14:28;42.08;;;26.50;;
55575;SDS011;41437;45.478;9.116;2023-03-01T00:17:31;44.65;;;27.55;;
55575;SDS011;41437;45.478;9.116;2023-03-01T00:20:33;43.72;;;27.85;;
55575;SDS011;41437;45.478;9.116;2023-03-01T00:23:35;46.08;;;28.33;;
55575;SDS011;41437;45.478;9.116;2023-03-01T00:26:37;47.20;;;27.65;;
55575;SDS011;41437;45.478;9.116;2023-03-01T00:29:39;44.30;;;28.42;;
55575;SDS011;41437;45.478;9.116;2023-03-01T00:32:42;45.88;;;27.70;;
55575;SDS011;41437;45.478;9.116;2023-03-01T00:38:46;47.63;;;28.45;;
55575;SDS011;41437;45.478;9.116;2023-03-01T00:41:47;47.20;;;28.27;;
55575;SDS011;41437;45.478;9.116;2023-03-01T00:44:49;45.47;;;27.58;;
55575;SDS011;41437;45.478;9.116;2023-03-01T00:47:54;48.78;;;29.10;;
55575;SDS011;41437;45.478;9.116;2023-03-01T00:50:55;44.83;;;29.25;;
55575;SDS011;41437;45.478;9.116;2023-03-01T00:53:57;48.88;;;28.88;;
55575;SDS011;41437;45.478;9.116;2023-03-01T00:57:00;46.42;;;29.77;;
55575;SDS011;41437;45.478;9.116;2023-03-01T01:00:02;49.13;;;28.50;;
55575;SDS011;41437;45.478;9.116;2023-03-01T01:03:08;45.05;;;28.60;;
55575;SDS011;41437;45.478;9.116;2023-03-01T01:06:13;43.42;;;28.25;;
55575;SDS011;41437;45.478;9.116;2023-03-01T01:09:16;44.20;;;27.83;;
55575;SDS011;41437;45.478;9.116;2023-03-01T01:12:18;44.60;;;27.65;;
55575;SDS011;41437;45.478;9.116;2023-03-01T01:15:20;47.08;;;28.98;;
55575;SDS011;41437;45.478;9.116;2023-03-01T01:18:23;45.97;;;28.23;;
55575;SDS011;41437;45.478;9.116;2023-03-01T01:21:24;44.25;;;27.55;;
55575;SDS011;41437;45.478;9.116;2023-03-01T01:24:27;46.38;;;28.38;;
55575;SDS011;41437;45.478;9.116;2023-03-01T01:27:29;50.67;;;30.00;;
55575;SDS011;41437;45.478;9.116;2023-03-01T01:30:31;45.15;;;28.10;;
55575;SDS011;41437;45.478;9.116;2023-03-01T01:33:37;46.85;;;27.60;;
55575;SDS011;41437;45.478;9.116;2023-03-01T01:36:38;44.53;;;27.63;;
55575;SDS011;41437;45.478;9.116;2023-03-01T01:39:40;47.05;;;28.05;;
55575;SDS011;41437;45.478;9.116;2023-03-01T01:42:44;44.08;;;28.42;;
55575;SDS011;41437;45.478;9.116;2023-03-01T01:45:46;48.40;;;27.80;;
55575;SDS011;41437;45.478;9.116;2023-03-01T01:48:52;45.25;;;28.00;;
55575;SDS011;41437;45.478;9.116;2023-03-01T01:51:58;45.05;;;28.30;;
55575;SDS011;41437;45.478;9.116;2023-03-01T01:55:06;47.42;;;27.55;;
55575;SDS011;41437;45.478;9.116;2023-03-01T01:58:14;44.03;;;27.45;;
55575;SDS011;41437;45.478;9.116;2023-03-01T02:01:19;45.78;;;27.65;;
55575;SDS011;41437;45.478;9.116;2023-03-01T02:04:22;44.40;;;27.30;;
55575;SDS011;41437;45.478;9.116;2023-03-01T02:07:25;47.00;;;28.38;;
55575;SDS011;41437;45.478;9.116;2023-03-01T02:10:27;46.50;;;27.02;;
55575;SDS011;41437;45.478;9.116;2023-03-01T02:13:30;44.00;;;26.00;;
55575;SDS011;41437;45.478;9.116;2023-03-01T02:16:32;46.40;;;28.10;;
55575;SDS011;41437;45.478;9.116;2023-03-01T02:19:44;44.80;;;25.95;;
55575;SDS011;41437;45.478;9.116;2023-03-01T02:22:53;42.30;;;26.38;;
55575;SDS011;41437;45.478;9.116;2023-03-01T02:25:57;42.53;;;27.63;;
55575;SDS011;41437;45.478;9.116;2023-03-01T02:29:04;43.95;;;25.80;;
55575;SDS011;41437;45.478;9.116;2023-03-01T02:32:06;45.75;;;26.88;;
55575;SDS011;41437;45.478;9.116;2023-03-01T02:35:09;44.05;;;26.13;;
55575;SDS011;41437;45.478;9.116;2023-03-01T02:38:15;43.60;;;25.17;;
55575;SDS011;41437;45.478;9.116;2023-03-01T02:41:17;42.17;;;25.02;;
55575;SDS011;41437;45.478;9.116;2023-03-01T02:44:23;40.75;;;25.23;;
55575;SDS011;41437;45.478;9.116;2023-03-01T02:47:24;41.58;;;25.75;;
55575;SDS011;41437;45.478;9.116;2023-03-01T02:50:35;38.42;;;24.63;;
55575;SDS011;41437;45.478;9.116;2023-03-01T02:53:49;37.22;;;24.25;;
55575;SDS011;41437;45.478;9.116;2023-03-01T02:56:57;42.22;;;25.55;;
55575;SDS011;41437;45.478;9.116;2023-03-01T03:00:02;42.00;;;25.20;;
55575;SDS011;41437;45.478;9.116;2023-03-01T03:03:07;39.00;;;25.58;;
55575;SDS011;41437;45.478;9.116;2023-03-01T03:06:09;42.40;;;25.42;;
55575;SDS011;41437;45.478;9.116;2023-03-01T03:09:11;40.67;;;26.23;;
55575;SDS011;41437;45.478;9.116;2023-03-01T03:12:13;40.53;;;25.20;;
55575;SDS011;41437;45.478;9.116;2023-03-01T03:15:16;44.80;;;25.42;;
55575;SDS011;41437;45.478;9.116;2023-03-01T03:18:17;39.97;;;24.83;;
55575;SDS011;41437;45.478;9.116;2023-03-01T03:21:21;40.42;;;24.88;;
55575;SDS011;41437;45.478;9.116;2023-03-01T03:24:22;39.22;;;24.15;;
55575;SDS011;41437;45.478;9.116;2023-03-01T03:27:24;40.95;;;25.42;;
55575;SDS011;41437;45.478;9.116;2023-03-01T03:30:28;43.65;;;25.83;;
55575;SDS011;41437;45.478;9.116;2023-03-01T03:33:34;40.33;;;26.13;;
55575;SDS011;41437;45.478;9.116;2023-03-01T03:36:35;41.17;;;24.80;;
55575;SDS011;41437;45.478;9.116;2023-03-01T03:39:37;44.60;;;24.50;;
55575;SDS011;41437;45.478;9.116;2023-03-01T03:42:38;42.72;;;26.42;;
55575;SDS011;41437;45.478;9.116;2023-03-01T03:45:41;44.50;;;25.60;;
55575;SDS011;41437;45.478;9.116;2023-03-01T03:48:44;45.17;;;25.95;;
55575;SDS011;41437;45.478;9.116;2023-03-01T03:51:46;42.58;;;25.90;;
55575;SDS011;41437;45.478;9.116;2023-03-01T03:54:48;44.03;;;25.35;;
55575;SDS011;41437;45.478;9.116;2023-03-01T03:57:49;38.97;;;24.23;;
55575;SDS011;41437;45.478;9.116;2023-03-01T04:00:56;45.03;;;25.92;;
55575;SDS011;41437;45.478;9.116;2023-03-01T04:07:04;41.45;;;24.13;;
55575;SDS011;41437;45.478;9.116;2023-03-01T04:10:06;39.80;;;24.27;;
55575;SDS011;41437;45.478;9.116;2023-03-01T04:16:13;46.58;;;24.80;;
55575;SDS011;41437;45.478;9.116;2023-03-01T04:19:18;46.40;;;24.83;;
55575;SDS011;41437;45.478;9.116;2023-03-01T04:22:19;41.13;;;25.45;;
55575;SDS011;41437;45.478;9.116;2023-03-01T04:25:21;40.33;;;24.75;;
55575;SDS011;41437;45.478;9.116;2023-03-01T04:28:23;44.67;;;26.70;;
55575;SDS011;41437;45.478;9.116;2023-03-01T04:31:27;41.70;;;25.30;;
55575;SDS011;41437;45.478;9.116;2023-03-01T04:34:28;43.45;;;26.08;;
55575;SDS011;41437;45.478;9.116;2023-03-01T04:37:30;45.50;;;26.65;;
55575;SDS011;41437;45.478;9.116;2023-03-01T04:40:31;46.58;;;26.77;;
55575;SDS011;41437;45.478;9.116;2023-03-01T04:43:34;43.25;;;26.08;;
55575;SDS011;41437;45.478;9.116;2023-03-01T04:46:37;42.55;;;25.13;;
55575;SDS011;41437;45.478;9.116;2023-03-01T04:49:38;41.10;;;24.70;;
55575;SDS011;41437;45.478;9.116;2023-03-01T04:52:40;43.42;;;26.13;;
55575;SDS011;41437;45.478;9.116;2023-03-01T04:55:41;45.95;;;26.50;;
55575;SDS011;41437;45.478;9.116;2023-03-01T04:58:43;43.30;;;26.38;;
55575;SDS011;41437;45.478;9.116;2023-03-01T05:01:46;40.78;;;25.00;;
55575;SDS011;41437;45.478;9.116;2023-03-01T05:04:48;41.45;;;24.73;;
55575;SDS011;41437;45.478;9.116;2023-03-01T05:07:49;40.88;;;25.33;;
55575;SDS011;41437;45.478;9.116;2023-03-01T05:10:52;40.72;;;24.63;;
55575;SDS011;41437;45.478;9.116;2023-03-01T05:13:54;44.92;;;26.02;;
55575;SDS011;41437;45.478;9.116;2023-03-01T05:16:57;42.58;;;26.02;;
55575;SDS011;41437;45.478;9.116;2023-03-01T05:20:04;41.53;;;25.08;;
55575;SDS011;41437;45.478;9.116;2023-03-01T05:23:08;41.75;;;25.13;;
55575;SDS011;41437;45.478;9.116;2023-03-01T05:26:10;42.20;;;25.13;;
55575;SDS011;41437;45.478;9.116;2023-03-01T05:29:12;42.92;;;25.55;;
55575;SDS011;41437;45.478;9.116;2023-03-01T05:32:15;41.42;;;25.33;;
55575;SDS011;41437;45.478;9.116;2023-03-01T05:35:17;41.38;;;25.63;;
55575;SDS011;41437;45.478;9.116;2023-03-01T05:38:19;42.85;;;25.02;;
55575;SDS011;41437;45.478;9.116;2023-03-01T05:41:22;41.72;;;25.17;;
55575;SDS011;41437;45.478;9.116;2023-03-01T05:44:24;44.15;;;26.17;;
55575;SDS011;41437;45.478;9.116;2023-03-01T05:47:27;43.72;;;25.15;;
55575;SDS011;41437;45.478;9.116;2023-03-01T05:50:32;41.58;;;25.83;;
55575;SDS011;41437;45.478;9.116;2023-03-01T05:53:35;45.03;;;25.33;;
55575;SDS011;41437;45.478;9.116;2023-03-01T05:56:36;45.08;;;25.60;;
55575;SDS011;41437;45.478;9.116;2023-03-01T05:59:38;40.42;;;25.20;;
55575;SDS011;41437;45.478;9.116;2023-03-01T06:02:41;44.75;;;25.95;;
55575;SDS011;41437;45.478;9.116;2023-03-01T06:05:43;41.88;;;25.48;;
55575;SDS011;41437;45.478;9.116;2023-03-01T06:08:47;45.30;;;26.15;;
55575;SDS011;41437;45.478;9.116;2023-03-01T06:14:52;41.83;;;23.67;;
55575;SDS011;41437;45.478;9.116;2023-03-01T06:17:55;41.30;;;24.73;;
55575;SDS011;41437;45.478;9.116;2023-03-01T06:20:57;43.57;;;25.20;;
55575;SDS011;41437;45.478;9.116;2023-03-01T06:23:58;45.40;;;25.17;;
55575;SDS011;41437;45.478;9.116;2023-03-01T06:27:00;45.35;;;26.65;;
55575;SDS011;41437;45.478;9.116;2023-03-01T06:30:02;43.47;;;26.23;;
55575;SDS011;41437;45.478;9.116;2023-03-01T06:33:05;44.83;;;26.65;;
55575;SDS011;41437;45.478;9.116;2023-03-01T06:36:07;45.85;;;25.67;;
55575;SDS011;41437;45.478;9.116;2023-03-01T06:39:10;42.42;;;24.85;;
55575;SDS011;41437;45.478;9.116;2023-03-01T06:42:11;46.67;;;26.15;;
55575;SDS011;41437;45.478;9.116;2023-03-01T06:45:12;41.38;;;24.67;;
55575;SDS011;41437;45.478;9.116;2023-03-01T06:48:15;44.42;;;25.70;;
55575;SDS011;41437;45.478;9.116;2023-03-01T06:51:17;41.40;;;26.05;;
55575;SDS011;41437;45.478;9.116;2023-03-01T06:54:18;42.53;;;25.60;;
55575;SDS011;41437;45.478;9.116;2023-03-01T06:57:22;41.47;;;25.23;;
55575;SDS011;41437;45.478;9.116;2023-03-01T07:00:24;41.75;;;24.40;;
55575;SDS011;41437;45.478;9.116;2023-03-01T07:03:27;45.42;;;26.08;;
55575;SDS011;41437;45.478;9.116;2023-03-01T07:06:31;45.72;;;28.15;;
55575;SDS011;41437;45.478;9.116;2023-03-01T07:12:34;43.28;;;25.73;;
55575;SDS011;41437;45.478;9.116;2023-03-01T07:15:36;47.58;;;28.25;;
55575;SDS011;41437;45.478;9.116;2023-03-01T07:18:39;64.03;;;35.42;;
55575;SDS011;41437;45.478;9.116;2023-03-01T07:21:40;57.75;;;32.38;;
55575;SDS011;41437;45.478;9.116;2023-03-01T07:24:45;51.63;;;30.13;;
55575;SDS011;41437;45.478;9.116;2023-03-01T07:27:48;53.00;;;30.30;;
55575;SDS011;41437;45.478;9.116;2023-03-01T07:30:52;47.20;;;28.10;;
55575;SDS011;41437;45.478;9.116;2023-03-01T07:33:55;45.72;;;27.42;;
55575;SDS011;41437;45.478;9.116;2023-03-01T07:36:57;47.75;;;27.80;;
55575;SDS011;41437;45.478;9.116;2023-03-01T07:40:01;47.70;;;27.73;;
55575;SDS011;41437;45.478;9.116;2023-03-01T07:43:02;44.65;;;26.88;;
55575;SDS011;41437;45.478;9.116;2023-03-01T07:46:04;43.38;;;27.35;;
55575;SDS011;41437;45.478;9.116;2023-03-01T07:49:07;46.55;;;26.27;;
55575;SDS011;41437;45.478;9.116;2023-03-01T07:52:12;46.15;;;27.75;;
55575;SDS011;41437;45.478;9.116;2023-03-01T07:55:14;43.63;;;26.10;;
55575;SDS011;41437;45.478;9.116;2023-03-01T07:58:16;42.63;;;25.10;;
55575;SDS011;41437;45.478;9.116;2023-03-01T08:01:18;42.33;;;25.88;;
55575;SDS011;41437;45.478;9.116;2023-03-01T08:07:24;36.78;;;21.90;;
55575;SDS011;41437;45.478;9.116;2023-03-01T08:10:26;39.17;;;22.25;;
55575;SDS011;41437;45.478;9.116;2023-03-01T08:13:28;35.50;;;20.88;;
55575;SDS011;41437;45.478;9.116;2023-03-01T08:16:29;40.90;;;22.92;;
55575;SDS011;41437;45.478;9.116;2023-03-01T08:19:33;38.05;;;21.95;;
55575;SDS011;41437;45.478;9.116;2023-03-01T08:22:35;35.92;;;21.27;;
55575;SDS011;41437;45.478;9.116;2023-03-01T08:25:37;32.40;;;20.40;;
55575;SDS011;41437;45.478;9.116;2023-03-01T08:28:39;31.88;;;20.15;;
55575;SDS011;41437;45.478;9.116;2023-03-01T08:31:45;33.33;;;19.42;;
55575;SDS011;41437;45.478;9.116;2023-03-01T08:34:48;34.22;;;20.38;;
55575;SDS011;41437;45.478;9.116;2023-03-01T08:37:50;30.40;;;18.35;;
55575;SDS011;41437;45.478;9.116;2023-03-01T08:40:51;31.58;;;19.52;;
55575;SDS011;41437;45.478;9.116;2023-03-01T08:43:53;32.58;;;19.02;;
55575;SDS011;41437;45.478;9.116;2023-03-01T08:46:58;28.63;;;17.65;;
55575;SDS011;41437;45.478;9.116;2023-03-01T08:50:01;31.25;;;19.10;;
55575;SDS011;41437;45.478;9.116;2023-03-01T08:53:03;28.55;;;17.90;;
55575;SDS011;41437;45.478;9.116;2023-03-01T08:56:05;32.13;;;18.38;;
55575;SDS011;41437;45.478;9.116;2023-03-01T08:59:08;29.80;;;17.90;;
55575;SDS011;41437;45.478;9.116;2023-03-01T09:02:11;30.27;;;17.80;;
55575;SDS011;41437;45.478;9.116;2023-03-01T09:05:16;29.98;;;18.20;;
55575;SDS011;41437;45.478;9.116;2023-03-01T09:08:18;27.90;;;17.33;;
55575;SDS011;41437;45.478;9.116;2023-03-01T09:11:21;30.70;;;17.63;;
55575;SDS011;41437;45.478;9.116;2023-03-01T09:14:24;29.05;;;17.13;;
55575;SDS011;41437;45.478;9.116;2023-03-01T09:17:26;29.40;;;18.33;;
55575;SDS011;41437;45.478;9.116;2023-03-01T09:23:47;30.67;;;19.38;;
55575;SDS011;41437;45.478;9.116;2023-03-01T09:26:50;29.17;;;18.42;;
55575;SDS011;41437;45.478;9.116;2023-03-01T09:29:54;30.40;;;18.60;;
55575;SDS011;41437;45.478;9.116;2023-03-01T09:32:57;28.80;;;17.15;;
55575;SDS011;41437;45.478;9.116;2023-03-01T09:36:00;29.17;;;17.20;;
55575;SDS011;41437;45.478;9.116;2023-03-01T09:39:04;27.13;;;17.20;;
55575;SDS011;41437;45.478;9.116;2023-03-01T09:42:11;32.60;;;18.30;;
55575;SDS011;41437;45.478;9.116;2023-03-01T09:45:15;33.15;;;18.40;;
55575;SDS011;41437;45.478;9.116;2023-03-01T09:48:26;33.70;;;20.10;;
55575;SDS011;41437;45.478;9.116;2023-03-01T09:51:36;30.80;;;19.35;;
55575;SDS011;41437;45.478;9.116;2023-03-01T09:54:38;29.05;;;18.63;;
55575;SDS011;41437;45.478;9.116;2023-03-01T09:57:43;32.88;;;18.17;;
55575;SDS011;41437;45.478;9.116;2023-03-01T10:00:50;30.80;;;17.50;;
55575;SDS011;41437;45.478;9.116;2023-03-01T10:03:57;26.30;;;15.82;;
55575;SDS011;41437;45.478;9.116;2023-03-01T10:07:14;24.92;;;15.18;;
55575;SDS011;41437;45.478;9.116;2023-03-01T10:10:28;27.13;;;15.75;;
55575;SDS011;41437;45.478;9.116;2023-03-01T10:13:35;28.00;;;16.30;;
55575;SDS011;41437;45.478;9.116;2023-03-01T10:16:47;25.85;;;16.00;;
55575;SDS011;41437;45.478;9.116;2023-03-01T10:19:52;24.63;;;14.55;;
55575;SDS011;41437;45.478;9.116;2023-03-01T10:22:55;24.75;;;14.38;;
55575;SDS011;41437;45.478;9.116;2023-03-01T10:26:06;25.42;;;14.32;;
55575;SDS011;41437;45.478;9.116;2023-03-01T10:29:18;25.00;;;14.68;;
55575;SDS011;41437;45.478;9.116;2023-03-01T10:32:25;23.42;;;15.43;;
55575;SDS011;41437;45.478;9.116;2023-03-01T10:35:28;24.13;;;14.35;;
55575;SDS011;41437;45.478;9.116;2023-03-01T10:38:48;24.45;;;12.50;;
55575;SDS011;41437;45.478;9.116;2023-03-01T10:41:55;22.33;;;13.93;;
55575;SDS011;41437;45.478;9.116;2023-03-01T10:45:14;24.05;;;14.35;;
55575;SDS011;41437;45.478;9.116;2023-03-01T10:48:19;24.98;;;15.38;;
55575;SDS011;41437;45.478;9.116;2023-03-01T10:51:24;27.15;;;16.17;;
55575;SDS011;41437;45.478;9.116;2023-03-01T10:54:28;24.52;;;15.35;;
55575;SDS011;41437;45.478;9.116;2023-03-01T10:57:35;24.83;;;15.07;;
55575;SDS011;41437;45.478;9.116;2023-03-01T11:00:45;23.45;;;13.48;;
55575;SDS011;41437;45.478;9.116;2023-03-01T11:04:02;26.63;;;15.15;;
55575;SDS011;41437;45.478;9.116;2023-03-01T11:07:11;25.75;;;15.30;;
55575;SDS011;41437;45.478;9.116;2023-03-01T11:10:15;26.50;;;15.40;;
55575;SDS011;41437;45.478;9.116;2023-03-01T11:13:19;25.17;;;14.88;;
55575;SDS011;41437;45.478;9.116;2023-03-01T11:16:32;25.65;;;16.08;;
55575;SDS011;41437;45.478;9.116;2023-03-01T11:22:37;28.80;;;17.05;;
55575;SDS011;41437;45.478;9.116;2023-03-01T11:25:49;26.73;;;15.90;;
55575;SDS011;41437;45.478;9.116;2023-03-01T11:28:56;29.25;;;17.73;;
55575;SDS011;41437;45.478;9.116;2023-03-01T11:32:05;27.38;;;17.13;;
55575;SDS011;41437;45.478;9.116;2023-03-01T11:35:10;28.85;;;17.00;;
55575;SDS011;41437;45.478;9.116;2023-03-01T11:38:21;33.25;;;18.40;;
55575;SDS011;41437;45.478;9.116;2023-03-01T11:41:28;29.65;;;16.95;;
55575;SDS011;41437;45.478;9.116;2023-03-01T11:44:33;28.48;;;16.67;;
55575;SDS011;41437;45.478;9.116;2023-03-01T11:47:42;28.05;;;17.27;;
55575;SDS011;41437;45.478;9.116;2023-03-01T11:50:56;30.38;;;17.92;;
55575;SDS011;41437;45.478;9.116;2023-03-01T11:54:05;27.50;;;16.95;;
55575;SDS011;41437;45.478;9.116;2023-03-01T11:57:17;28.27;;;16.90;;
55575;SDS011;41437;45.478;9.116;2023-03-01T12:00:39;29.35;;;18.13;;
55575;SDS011;41437;45.478;9.116;2023-03-01T12:04:05;29.30;;;17.95;;
55575;SDS011;41437;45.478;9.116;2023-03-01T12:07:24;27.40;;;16.42;;
55575;SDS011;41437;45.478;9.116;2023-03-01T12:10:38;29.38;;;18.05;;
55575;SDS011;41437;45.478;9.116;2023-03-01T12:17:26;30.00;;;17.45;;
55575;SDS011;41437;45.478;9.116;2023-03-01T12:20:39;28.05;;;16.23;;
55575;SDS011;41437;45.478;9.116;2023-03-01T12:24:06;29.33;;;17.13;;
55575;SDS011;41437;45.478;9.116;2023-03-01T12:27:26;28.88;;;16.95;;
55575;SDS011;41437;45.478;9.116;2023-03-01T12:30:55;28.88;;;17.30;;
55575;SDS011;41437;45.478;9.116;2023-03-01T12:34:32;26.15;;;17.23;;
55575;SDS011;41437;45.478;9.116;2023-03-01T12:37:52;28.60;;;17.48;;
55575;SDS011;41437;45.478;9.116;2023-03-01T12:41:02;31.75;;;18.58;;
55575;SDS011;41437;45.478;9.116;2023-03-01T12:44:27;32.35;;;19.50;;
55575;SDS011;41437;45.478;9.116;2023-03-01T12:51:42;32.83;;;18.90;;
55575;SDS011;41437;45.478;9.116;2023-03-01T12:54:53;33.33;;;19.13;;
55575;SDS011;41437;45.478;9.116;2023-03-01T12:58:06;31.90;;;19.35;;
55575;SDS011;41437;45.478;9.116;2023-03-01T13:01:31;30.50;;;18.75;;
55575;SDS011;41437;45.478;9.116;2023-03-01T13:04:43;29.13;;;19.08;;
55575;SDS011;41437;45.478;9.116;2023-03-01T13:08:00;33.10;;;19.13;;
55575;SDS011;41437;45.478;9.116;2023-03-01T13:14:37;31.27;;;19.27;;
55575;SDS011;41437;45.478;9.116;2023-03-01T13:17:47;29.10;;;18.80;;
55575;SDS011;41437;45.478;9.116;2023-03-01T13:20:50;30.60;;;18.30;;
55575;SDS011;41437;45.478;9.116;2023-03-01T13:23:54;29.67;;;18.45;;
55575;SDS011;41437;45.478;9.116;2023-03-01T13:27:21;29.58;;;19.05;;
55575;SDS011;41437;45.478;9.116;2023-03-01T13:30:39;29.80;;;17.75;;
55575;SDS011;41437;45.478;9.116;2023-03-01T13:33:43;33.58;;;18.15;;
55575;SDS011;41437;45.478;9.116;2023-03-01T13:36:47;27.67;;;17.95;;
55575;SDS011;41437;45.478;9.116;2023-03-01T13:39:52;29.87;;;17.30;;
55575;SDS011;41437;45.478;9.116;2023-03-01T13:42:54;29.38;;;18.50;;
55575;SDS011;41437;45.478;9.116;2023-03-01T13:45:59;27.95;;;17.23;;
55575;SDS011;41437;45.478;9.116;2023-03-01T13:49:04;26.60;;;17.40;;
55575;SDS011;41437;45.478;9.116;2023-03-01T13:52:06;27.98;;;17.88;;
55575;SDS011;41437;45.478;9.116;2023-03-01T13:55:45;26.33;;;17.08;;
55575;SDS011;41437;45.478;9.116;2023-03-01T13:58:55;28.98;;;17.70;;
55575;SDS011;41437;45.478;9.116;2023-03-01T14:05:40;27.70;;;17.42;;
55575;SDS011;41437;45.478;9.116;2023-03-01T14:09:01;29.05;;;18.42;;
55575;SDS011;41437;45.478;9.116;2023-03-01T14:15:50;28.40;;;18.25;;
55575;SDS011;41437;45.478;9.116;2023-03-01T14:19:08;30.05;;;18.70;;
55575;SDS011;41437;45.478;9.116;2023-03-01T14:22:22;28.83;;;18.77;;
55575;SDS011;41437;45.478;9.116;2023-03-01T14:25:26;28.92;;;18.83;;
55575;SDS011;41437;45.478;9.116;2023-03-01T14:28:40;31.38;;;19.20;;
55575;SDS011;41437;45.478;9.116;2023-03-01T14:31:44;32.78;;;18.73;;
55575;SDS011;41437;45.478;9.116;2023-03-01T14:34:47;32.15;;;18.92;;
55575;SDS011;41437;45.478;9.116;2023-03-01T14:37:51;31.58;;;19.40;;
55575;SDS011;41437;45.478;9.116;2023-03-01T14:40:54;29.35;;;18.70;;
55575;SDS011;41437;45.478;9.116;2023-03-01T14:44:02;30.65;;;18.38;;
55575;SDS011;41437;45.478;9.116;2023-03-01T14:47:06;30.30;;;18.70;;
55575;SDS011;41437;45.478;9.116;2023-03-01T14:50:17;29.55;;;18.48;;
55575;SDS011;41437;45.478;9.116;2023-03-01T14:53:24;32.05;;;18.67;;
55575;SDS011;41437;45.478;9.116;2023-03-01T14:56:35;30.33;;;18.20;;
55575;SDS011;41437;45.478;9.116;2023-03-01T14:59:46;32.63;;;19.58;;
55575;SDS011;41437;45.478;9.116;2023-03-01T15:02:49;29.33;;;18.60;;
55575;SDS011;41437;45.478;9.116;2023-03-01T15:05:52;30.60;;;18.92;;
55575;SDS011;41437;45.478;9.116;2023-03-01T15:08:54;33.33;;;19.58;;
55575;SDS011;41437;45.478;9.116;2023-03-01T15:11:57;30.27;;;18.70;;
55575;SDS011;41437;45.478;9.116;2023-03-01T15:15:00;33.15;;;20.05;;
55575;SDS011;41437;45.478;9.116;2023-03-01T15:18:02;31.02;;;18.80;;
55575;SDS011;41437;45.478;9.116;2023-03-01T15:21:09;35.38;;;18.58;;
55575;SDS011;41437;45.478;9.116;2023-03-01T15:24:17;29.88;;;18.48;;
55575;SDS011;41437;45.478;9.116;2023-03-01T15:27:22;31.08;;;18.65;;
55575;SDS011;41437;45.478;9.116;2023-03-01T15:30:27;32.28;;;18.70;;
55575;SDS011;41437;45.478;9.116;2023-03-01T15:33:35;30.27;;;18.20;;
55575;SDS011;41437;45.478;9.116;2023-03-01T15:36:41;30.77;;;18.88;;
55575;SDS011;41437;45.478;9.116;2023-03-01T15:39:50;29.58;;;18.35;;
55575;SDS011;41437;45.478;9.116;2023-03-01T15:42:54;31.13;;;18.92;;
55575;SDS011;41437;45.478;9.116;2023-03-01T15:45:57;33.53;;;19.23;;
55575;SDS011;41437;45.478;9.116;2023-03-01T15:49:02;30.08;;;18.55;;
55575;SDS011;41437;45.478;9.116;2023-03-01T15:52:08;32.58;;;18.65;;
55575;SDS011;41437;45.478;9.116;2023-03-01T15:55:17;28.70;;;17.80;;
55575;SDS011;41437;45.478;9.116;2023-03-01T15:58:21;33.45;;;19.48;;
55575;SDS011;41437;45.478;9.116;2023-03-01T16:04:27;32.45;;;19.17;;
55575;SDS011;41437;45.478;9.116;2023-03-01T16:07:29;33.08;;;19.52;;
55575;SDS011;41437;45.478;9.116;2023-03-01T16:10:31;32.60;;;19.67;;
55575;SDS011;41437;45.478;9.116;2023-03-01T16:13:33;30.13;;;19.52;;
55575;SDS011;41437;45.478;9.116;2023-03-01T16:16:37;35.83;;;19.58;;
55575;SDS011;41437;45.478;9.116;2023-03-01T16:19:41;30.17;;;19.00;;
55575;SDS011;41437;45.478;9.116;2023-03-01T16:22:43;31.10;;;18.45;;
55575;SDS011;41437;45.478;9.116;2023-03-01T16:25:44;32.42;;;18.98;;
55575;SDS011;41437;45.478;9.116;2023-03-01T16:28:46;32.08;;;18.40;;
55575;SDS011;41437;45.478;9.116;2023-03-01T16:31:50;32.38;;;18.65;;
55575;SDS011;41437;45.478;9.116;2023-03-01T16:34:52;32.42;;;18.40;;
55575;SDS011;41437;45.478;9.116;2023-03-01T16:37:54;31.80;;;18.98;;
55575;SDS011;41437;45.478;9.116;2023-03-01T16:40:55;31.70;;;18.15;;
55575;SDS011;41437;45.478;9.116;2023-03-01T16:43:57;31.27;;;19.08;;
55575;SDS011;41437;45.478;9.116;2023-03-01T16:47:00;36.17;;;18.65;;
55575;SDS011;41437;45.478;9.116;2023-03-01T16:50:02;33.08;;;19.13;;
55575;SDS011;41437;45.478;9.116;2023-03-01T16:53:03;32.00;;;18.48;;
55575;SDS011;41437;45.478;9.116;2023-03-01T16:56:06;33.88;;;19.38;;
55575;SDS011;41437;45.478;9.116;2023-03-01T16:59:09;32.45;;;20.10;;
55575;SDS011;41437;45.478;9.116;2023-03-01T17:02:13;34.80;;;19.88;;
55575;SDS011;41437;45.478;9.116;2023-03-01T17:05:16;32.95;;;19.52;;
55575;SDS011;41437;45.478;9.116;2023-03-01T17:08:20;33.05;;;19.67;;
55575;SDS011;41437;45.478;9.116;2023-03-01T17:11:25;33.85;;;19.30;;
55575;SDS011;41437;45.478;9.116;2023-03-01T17:14:27;31.65;;;20.38;;
55575;SDS011;41437;45.478;9.116;2023-03-01T17:17:29;33.70;;;19.23;;
55575;SDS011;41437;45.478;9.116;2023-03-01T17:20:31;34.10;;;18.95;;
55575;SDS011;41437;45.478;9.116;2023-03-01T17:23:35;35.33;;;20.93;;
55575;SDS011;41437;45.478;9.116;2023-03-01T17:26:39;32.30;;;19.75;;
55575;SDS011;41437;45.478;9.116;2023-03-01T17:29:41;34.97;;;19.10;;
55575;SDS011;41437;45.478;9.116;2023-03-01T17:32:44;37.78;;;20.77;;
55575;SDS011;41437;45.478;9.116;2023-03-01T17:35:45;31.80;;;18.77;;
55575;SDS011;41437;45.478;9.116;2023-03-01T17:38:49;36.27;;;21.97;;
55575;SDS011;41437;45.478;9.116;2023-03-01T17:41:51;37.00;;;22.48;;
55575;SDS011;41437;45.478;9.116;2023-03-01T17:44:52;36.33;;;21.10;;
55575;SDS011;41437;45.478;9.116;2023-03-01T17:47:55;40.60;;;22.13;;
55575;SDS011;41437;45.478;9.116;2023-03-01T17:50:56;40.22;;;21.98;;
55575;SDS011;41437;45.478;9.116;2023-03-01T17:53:58;38.88;;;22.25;;
55575;SDS011;41437;45.478;9.116;2023-03-01T17:56:59;37.42;;;22.70;;
55575;SDS011;41437;45.478;9.116;2023-03-01T18:00:01;39.40;;;22.75;;
55575;SDS011;41437;45.478;9.116;2023-03-01T18:03:05;42.58;;;24.20;;
55575;SDS011;41437;45.478;9.116;2023-03-01T18:06:10;41.67;;;24.83;;
55575;SDS011;41437;45.478;9.116;2023-03-01T18:09:13;42.17;;;24.83;;
55575;SDS011;41437;45.478;9.116;2023-03-01T18:12:14;41.08;;;24.83;;
55575;SDS011;41437;45.478;9.116;2023-03-01T18:15:16;42.30;;;24.88;;
55575;SDS011;41437;45.478;9.116;2023-03-01T18:18:19;44.38;;;25.92;;
55575;SDS011;41437;45.478;9.116;2023-03-01T18:21:20;45.28;;;26.52;;
55575;SDS011;41437;45.478;9.116;2023-03-01T18:24:23;43.25;;;25.33;;
55575;SDS011;41437;45.478;9.116;2023-03-01T18:27:26;43.45;;;24.73;;
55575;SDS011;41437;45.478;9.116;2023-03-01T18:30:30;46.88;;;28.67;;
55575;SDS011;41437;45.478;9.116;2023-03-01T18:33:34;46.13;;;26.95;;
55575;SDS011;41437;45.478;9.116;2023-03-01T18:36:39;42.97;;;26.20;;
55575;SDS011;41437;45.478;9.116;2023-03-01T18:39:41;45.05;;;27.15;;
55575;SDS011;41437;45.478;9.116;2023-03-01T18:42:43;42.50;;;25.65;;
55575;SDS011;41437;45.478;9.116;2023-03-01T18:45:45;45.47;;;26.42;;
55575;SDS011;41437;45.478;9.116;2023-03-01T18:48:50;44.28;;;25.92;;